sensor_id;sensor_type;location;lat;lon;timestamp;P1;durP1;ratioP1;P2;durP2;ratioP2
31130;SDS011;20292;50.944;4.034;2022-12-18T00:01:58;149.10;;;57.90;;
31130;SDS011;20292;50.944;4.034;2022-12-18T00:04:24;143.50;;;56.63;;
31130;SDS011;20292;50.944;4.034;2022-12-18T00:06:51;134.82;;;57.22;;
31130;SDS011;20292;50.944;4.034;2022-12-18T00:09:17;142.00;;;55.78;;
31130;SDS011;20292;50.944;4.034;2022-12-18T00:11:43;144.75;;;57.63;;
31130;SDS011;20292;50.944;4.034;2022-12-18T00:14:10;136.38;;;54.63;;
31130;SDS011;20292;50.944;4.034;2022-12-18T00:16:36;140.30;;;53.70;;
31130;SDS011;20292;50.944;4.034;2022-12-18T00:19:02;132.55;;;52.75;;
31130;SDS011;20292;50.944;4.034;2022-12-18T00:21:29;136.77;;;52.85;;
31130;SDS011;20292;50.944;4.034;2022-12-18T00:23:57;132.90;;;51.50;;
31130;SDS011;20292;50.944;4.034;2022-12-18T00:26:24;133.50;;;50.53;;
31130;SDS011;20292;50.944;4.034;2022-12-18T00:28:52;136.45;;;49.92;;
31130;SDS011;20292;50.944;4.034;2022-12-18T00:31:20;131.13;;;52.45;;
31130;SDS011;20292;50.944;4.034;2022-12-18T00:33:46;134.07;;;51.55;;
31130;SDS011;20292;50.944;4.034;2022-12-18T00:36:19;127.97;;;51.78;;
31130;SDS011;20292;50.944;4.034;2022-12-18T00:38:46;117.32;;;49.80;;
31130;SDS011;20292;50.944;4.034;2022-12-18T00:41:13;111.68;;;46.47;;
31130;SDS011;20292;50.944;4.034;2022-12-18T00:44:00;108.95;;;44.03;;
31130;SDS011;20292;50.944;4.034;2022-12-18T00:46:27;115.13;;;45.38;;
31130;SDS011;20292;50.944;4.034;2022-12-18T00:48:52;109.82;;;43.17;;
31130;SDS011;20292;50.944;4.034;2022-12-18T00:51:18;102.18;;;41.67;;
31130;SDS011;20292;50.944;4.034;2022-12-18T00:53:43;103.97;;;43.55;;
31130;SDS011;20292;50.944;4.034;2022-12-18T00:56:09;109.97;;;44.03;;
31130;SDS011;20292;50.944;4.034;2022-12-18T00:58:34;114.03;;;43.72;;
31130;SDS011;20292;50.944;4.034;2022-12-18T01:01:00;124.38;;;45.90;;
31130;SDS011;20292;50.944;4.034;2022-12-18T01:03:25;111.68;;;45.03;;
31130;SDS011;20292;50.944;4.034;2022-12-18T01:05:51;119.47;;;46.50;;
31130;SDS011;20292;50.944;4.034;2022-12-18T01:08:16;117.85;;;45.33;;
31130;SDS011;20292;50.944;4.034;2022-12-18T01:10:42;118.22;;;46.70;;
31130;SDS011;20292;50.944;4.034;2022-12-18T01:13:07;108.72;;;44.28;;
31130;SDS011;20292;50.944;4.034;2022-12-18T01:15:33;110.75;;;43.50;;
31130;SDS011;20292;50.944;4.034;2022-12-18T01:17:59;112.38;;;43.75;;
31130;SDS011;20292;50.944;4.034;2022-12-18T01:20:24;108.18;;;43.53;;
31130;SDS011;20292;50.944;4.034;2022-12-18T01:22:50;104.97;;;43.28;;
31130;SDS011;20292;50.944;4.034;2022-12-18T01:25:16;106.93;;;43.08;;
31130;SDS011;20292;50.944;4.034;2022-12-18T01:27:41;107.72;;;43.00;;
31130;SDS011;20292;50.944;4.034;2022-12-18T01:30:08;107.93;;;44.80;;
31130;SDS011;20292;50.944;4.034;2022-12-18T01:32:34;114.20;;;42.40;;
31130;SDS011;20292;50.944;4.034;2022-12-18T01:34:59;111.35;;;44.15;;
31130;SDS011;20292;50.944;4.034;2022-12-18T01:37:25;103.93;;;41.83;;
31130;SDS011;20292;50.944;4.034;2022-12-18T01:39:52;114.55;;;43.55;;
31130;SDS011;20292;50.944;4.034;2022-12-18T01:42:19;109.13;;;42.78;;
31130;SDS011;20292;50.944;4.034;2022-12-18T01:47:35;107.47;;;42.17;;
31130;SDS011;20292;50.944;4.034;2022-12-18T01:50:36;105.95;;;42.05;;
31130;SDS011;20292;50.944;4.034;2022-12-18T01:53:05;105.28;;;39.53;;
31130;SDS011;20292;50.944;4.034;2022-12-18T01:55:32;100.55;;;40.65;;
31130;SDS011;20292;50.944;4.034;2022-12-18T01:58:03;94.82;;;37.63;;
31130;SDS011;20292;50.944;4.034;2022-12-18T02:00:29;93.32;;;36.90;;
31130;SDS011;20292;50.944;4.034;2022-12-18T02:02:55;95.63;;;37.03;;
31130;SDS011;20292;50.944;4.034;2022-12-18T02:11:10;101.18;;;37.65;;
31130;SDS011;20292;50.944;4.034;2022-12-18T02:16:52;96.13;;;36.17;;
31130;SDS011;20292;50.944;4.034;2022-12-18T02:19:32;94.35;;;35.22;;
31130;SDS011;20292;50.944;4.034;2022-12-18T02:22:17;101.78;;;36.47;;
31130;SDS011;20292;50.944;4.034;2022-12-18T02:25:13;95.00;;;35.83;;
31130;SDS011;20292;50.944;4.034;2022-12-18T02:28:05;89.75;;;35.67;;
31130;SDS011;20292;50.944;4.034;2022-12-18T02:30:34;91.60;;;35.78;;
31130;SDS011;20292;50.944;4.034;2022-12-18T02:33:02;90.68;;;34.78;;
31130;SDS011;20292;50.944;4.034;2022-12-18T02:35:30;96.80;;;38.80;;
31130;SDS011;20292;50.944;4.034;2022-12-18T02:37:56;95.57;;;37.42;;
31130;SDS011;20292;50.944;4.034;2022-12-18T02:40:23;103.25;;;38.42;;
31130;SDS011;20292;50.944;4.034;2022-12-18T02:42:50;91.53;;;36.22;;
31130;SDS011;20292;50.944;4.034;2022-12-18T02:45:16;97.53;;;38.38;;
31130;SDS011;20292;50.944;4.034;2022-12-18T02:47:43;89.13;;;36.80;;
31130;SDS011;20292;50.944;4.034;2022-12-18T03:01:10;80.90;;;33.28;;
31130;SDS011;20292;50.944;4.034;2022-12-18T03:03:49;85.88;;;33.58;;
31130;SDS011;20292;50.944;4.034;2022-12-18T03:06:24;91.47;;;33.60;;
31130;SDS011;20292;50.944;4.034;2022-12-18T03:09:21;82.70;;;32.25;;
31130;SDS011;20292;50.944;4.034;2022-12-18T03:11:54;91.20;;;34.35;;
31130;SDS011;20292;50.944;4.034;2022-12-18T03:14:42;85.47;;;32.70;;
31130;SDS011;20292;50.944;4.034;2022-12-18T03:17:10;84.38;;;32.55;;
31130;SDS011;20292;50.944;4.034;2022-12-18T03:19:40;91.43;;;33.25;;
31130;SDS011;20292;50.944;4.034;2022-12-18T03:22:08;82.22;;;31.00;;
31130;SDS011;20292;50.944;4.034;2022-12-18T03:24:35;78.38;;;32.15;;
31130;SDS011;20292;50.944;4.034;2022-12-18T03:27:04;80.70;;;32.38;;
31130;SDS011;20292;50.944;4.034;2022-12-18T03:29:35;73.75;;;29.85;;
31130;SDS011;20292;50.944;4.034;2022-12-18T03:32:06;86.03;;;32.85;;
31130;SDS011;20292;50.944;4.034;2022-12-18T03:34:35;78.68;;;30.42;;
31130;SDS011;20292;50.944;4.034;2022-12-18T03:37:04;79.30;;;31.00;;
31130;SDS011;20292;50.944;4.034;2022-12-18T03:39:30;76.78;;;30.17;;
31130;SDS011;20292;50.944;4.034;2022-12-18T03:52:37;72.85;;;29.25;;
31130;SDS011;20292;50.944;4.034;2022-12-18T03:55:08;72.75;;;27.95;;
31130;SDS011;20292;50.944;4.034;2022-12-18T03:57:35;71.25;;;29.42;;
31130;SDS011;20292;50.944;4.034;2022-12-18T04:00:06;73.32;;;28.75;;
31130;SDS011;20292;50.944;4.034;2022-12-18T04:02:35;71.20;;;29.23;;
31130;SDS011;20292;50.944;4.034;2022-12-18T04:05:05;76.32;;;28.77;;
31130;SDS011;20292;50.944;4.034;2022-12-18T04:07:33;73.40;;;28.48;;
31130;SDS011;20292;50.944;4.034;2022-12-18T04:09:59;74.63;;;28.13;;
31130;SDS011;20292;50.944;4.034;2022-12-18T04:12:28;72.93;;;28.48;;
31130;SDS011;20292;50.944;4.034;2022-12-18T04:14:54;73.03;;;28.27;;
31130;SDS011;20292;50.944;4.034;2022-12-18T04:17:20;73.10;;;28.45;;
31130;SDS011;20292;50.944;4.034;2022-12-18T04:19:46;75.60;;;28.60;;
31130;SDS011;20292;50.944;4.034;2022-12-18T04:22:11;71.13;;;28.40;;
31130;SDS011;20292;50.944;4.034;2022-12-18T04:24:37;72.88;;;28.95;;
31130;SDS011;20292;50.944;4.034;2022-12-18T04:27:03;69.55;;;27.85;;
31130;SDS011;20292;50.944;4.034;2022-12-18T04:29:29;68.82;;;27.58;;
31130;SDS011;20292;50.944;4.034;2022-12-18T04:31:55;72.00;;;28.92;;
31130;SDS011;20292;50.944;4.034;2022-12-18T04:34:20;71.13;;;28.00;;
31130;SDS011;20292;50.944;4.034;2022-12-18T04:36:46;78.38;;;29.85;;
31130;SDS011;20292;50.944;4.034;2022-12-18T04:39:12;70.22;;;27.67;;
31130;SDS011;20292;50.944;4.034;2022-12-18T04:41:38;71.45;;;27.95;;
31130;SDS011;20292;50.944;4.034;2022-12-18T04:44:04;71.10;;;27.85;;
31130;SDS011;20292;50.944;4.034;2022-12-18T04:46:30;76.78;;;30.35;;
31130;SDS011;20292;50.944;4.034;2022-12-18T04:48:55;71.22;;;29.02;;
31130;SDS011;20292;50.944;4.034;2022-12-18T04:51:21;72.57;;;28.52;;
31130;SDS011;20292;50.944;4.034;2022-12-18T04:53:46;70.10;;;28.05;;
31130;SDS011;20292;50.944;4.034;2022-12-18T04:56:13;66.03;;;27.20;;
31130;SDS011;20292;50.944;4.034;2022-12-18T04:58:40;74.18;;;28.20;;
31130;SDS011;20292;50.944;4.034;2022-12-18T05:01:07;73.10;;;27.92;;
31130;SDS011;20292;50.944;4.034;2022-12-18T05:03:34;66.63;;;26.95;;
31130;SDS011;20292;50.944;4.034;2022-12-18T05:06:00;69.63;;;28.70;;
31130;SDS011;20292;50.944;4.034;2022-12-18T05:08:26;68.65;;;26.95;;
31130;SDS011;20292;50.944;4.034;2022-12-18T05:10:58;71.43;;;27.38;;
31130;SDS011;20292;50.944;4.034;2022-12-18T05:13:28;66.55;;;26.48;;
31130;SDS011;20292;50.944;4.034;2022-12-18T05:15:54;68.55;;;26.35;;
31130;SDS011;20292;50.944;4.034;2022-12-18T05:18:20;64.75;;;26.00;;
31130;SDS011;20292;50.944;4.034;2022-12-18T05:20:47;64.75;;;26.17;;
31130;SDS011;20292;50.944;4.034;2022-12-18T05:23:13;65.10;;;25.08;;
31130;SDS011;20292;50.944;4.034;2022-12-18T05:25:39;65.05;;;25.85;;
31130;SDS011;20292;50.944;4.034;2022-12-18T05:28:04;63.50;;;25.60;;
31130;SDS011;20292;50.944;4.034;2022-12-18T05:30:30;68.05;;;26.80;;
31130;SDS011;20292;50.944;4.034;2022-12-18T05:32:55;64.88;;;25.27;;
31130;SDS011;20292;50.944;4.034;2022-12-18T05:35:21;66.15;;;26.25;;
31130;SDS011;20292;50.944;4.034;2022-12-18T05:37:46;65.15;;;25.10;;
31130;SDS011;20292;50.944;4.034;2022-12-18T05:40:12;61.50;;;25.40;;
31130;SDS011;20292;50.944;4.034;2022-12-18T05:42:37;59.45;;;24.88;;
31130;SDS011;20292;50.944;4.034;2022-12-18T05:45:03;63.00;;;24.27;;
31130;SDS011;20292;50.944;4.034;2022-12-18T05:47:29;58.00;;;23.38;;
31130;SDS011;20292;50.944;4.034;2022-12-18T05:49:55;61.30;;;25.27;;
31130;SDS011;20292;50.944;4.034;2022-12-18T05:52:21;61.08;;;24.30;;
31130;SDS011;20292;50.944;4.034;2022-12-18T05:54:46;60.08;;;25.35;;
31130;SDS011;20292;50.944;4.034;2022-12-18T05:57:12;53.72;;;23.40;;
31130;SDS011;20292;50.944;4.034;2022-12-18T05:59:37;56.88;;;23.58;;
31130;SDS011;20292;50.944;4.034;2022-12-18T06:02:03;66.57;;;26.70;;
31130;SDS011;20292;50.944;4.034;2022-12-18T06:04:29;58.67;;;25.30;;
31130;SDS011;20292;50.944;4.034;2022-12-18T06:06:54;58.88;;;24.20;;
31130;SDS011;20292;50.944;4.034;2022-12-18T06:09:20;62.60;;;24.80;;
31130;SDS011;20292;50.944;4.034;2022-12-18T06:11:45;55.05;;;23.95;;
31130;SDS011;20292;50.944;4.034;2022-12-18T06:14:11;59.55;;;25.20;;
31130;SDS011;20292;50.944;4.034;2022-12-18T06:16:37;57.67;;;23.35;;
31130;SDS011;20292;50.944;4.034;2022-12-18T06:19:03;61.90;;;25.27;;
31130;SDS011;20292;50.944;4.034;2022-12-18T06:21:30;57.30;;;23.70;;
31130;SDS011;20292;50.944;4.034;2022-12-18T06:23:56;57.22;;;23.65;;
31130;SDS011;20292;50.944;4.034;2022-12-18T06:26:22;57.47;;;24.58;;
31130;SDS011;20292;50.944;4.034;2022-12-18T06:28:48;57.22;;;23.48;;
31130;SDS011;20292;50.944;4.034;2022-12-18T06:31:14;53.03;;;22.88;;
31130;SDS011;20292;50.944;4.034;2022-12-18T06:33:40;57.78;;;23.83;;
31130;SDS011;20292;50.944;4.034;2022-12-18T06:36:07;55.03;;;22.73;;
31130;SDS011;20292;50.944;4.034;2022-12-18T06:38:39;60.90;;;23.95;;
31130;SDS011;20292;50.944;4.034;2022-12-18T06:41:14;57.80;;;24.23;;
31130;SDS011;20292;50.944;4.034;2022-12-18T06:43:41;57.60;;;23.83;;
31130;SDS011;20292;50.944;4.034;2022-12-18T06:46:07;58.05;;;24.17;;
31130;SDS011;20292;50.944;4.034;2022-12-18T06:48:33;59.42;;;24.23;;
31130;SDS011;20292;50.944;4.034;2022-12-18T06:50:59;56.67;;;23.27;;
31130;SDS011;20292;50.944;4.034;2022-12-18T06:53:25;57.70;;;23.55;;
31130;SDS011;20292;50.944;4.034;2022-12-18T06:55:51;56.72;;;23.23;;
31130;SDS011;20292;50.944;4.034;2022-12-18T06:58:16;53.60;;;22.45;;
31130;SDS011;20292;50.944;4.034;2022-12-18T07:00:42;54.83;;;21.50;;
31130;SDS011;20292;50.944;4.034;2022-12-18T07:03:08;48.50;;;21.55;;
31130;SDS011;20292;50.944;4.034;2022-12-18T07:05:33;49.25;;;20.25;;
31130;SDS011;20292;50.944;4.034;2022-12-18T07:07:59;52.30;;;21.17;;
31130;SDS011;20292;50.944;4.034;2022-12-18T07:10:25;51.05;;;20.70;;
31130;SDS011;20292;50.944;4.034;2022-12-18T07:12:51;49.13;;;20.67;;
31130;SDS011;20292;50.944;4.034;2022-12-18T07:15:16;53.65;;;21.80;;
31130;SDS011;20292;50.944;4.034;2022-12-18T07:17:42;53.58;;;21.92;;
31130;SDS011;20292;50.944;4.034;2022-12-18T07:20:08;42.75;;;19.08;;
31130;SDS011;20292;50.944;4.034;2022-12-18T07:22:34;46.92;;;20.67;;
31130;SDS011;20292;50.944;4.034;2022-12-18T07:24:59;50.35;;;20.73;;
31130;SDS011;20292;50.944;4.034;2022-12-18T07:27:25;49.08;;;20.48;;
31130;SDS011;20292;50.944;4.034;2022-12-18T07:29:50;52.38;;;20.80;;
31130;SDS011;20292;50.944;4.034;2022-12-18T07:32:16;45.13;;;19.77;;
31130;SDS011;20292;50.944;4.034;2022-12-18T07:34:42;46.60;;;18.55;;
31130;SDS011;20292;50.944;4.034;2022-12-18T07:37:07;46.70;;;19.15;;
31130;SDS011;20292;50.944;4.034;2022-12-18T07:39:33;49.80;;;20.33;;
31130;SDS011;20292;50.944;4.034;2022-12-18T07:41:58;45.00;;;19.25;;
31130;SDS011;20292;50.944;4.034;2022-12-18T07:44:42;54.50;;;24.42;;
31130;SDS011;20292;50.944;4.034;2022-12-18T07:47:08;52.05;;;20.33;;
31130;SDS011;20292;50.944;4.034;2022-12-18T07:49:33;50.30;;;20.60;;
31130;SDS011;20292;50.944;4.034;2022-12-18T07:51:59;50.88;;;21.40;;
31130;SDS011;20292;50.944;4.034;2022-12-18T07:54:25;51.67;;;22.40;;
31130;SDS011;20292;50.944;4.034;2022-12-18T07:56:51;54.88;;;24.25;;
31130;SDS011;20292;50.944;4.034;2022-12-18T07:59:17;58.78;;;24.02;;
31130;SDS011;20292;50.944;4.034;2022-12-18T08:01:42;64.88;;;24.13;;
31130;SDS011;20292;50.944;4.034;2022-12-18T08:04:08;53.78;;;22.77;;
31130;SDS011;20292;50.944;4.034;2022-12-18T08:06:34;53.10;;;22.02;;
31130;SDS011;20292;50.944;4.034;2022-12-18T08:09:00;58.08;;;22.95;;
31130;SDS011;20292;50.944;4.034;2022-12-18T08:11:26;54.00;;;23.90;;
31130;SDS011;20292;50.944;4.034;2022-12-18T08:13:53;62.90;;;24.05;;
31130;SDS011;20292;50.944;4.034;2022-12-18T08:16:19;49.65;;;22.50;;
31130;SDS011;20292;50.944;4.034;2022-12-18T08:18:45;51.20;;;21.75;;
31130;SDS011;20292;50.944;4.034;2022-12-18T08:21:12;40.35;;;19.20;;
31130;SDS011;20292;50.944;4.034;2022-12-18T08:23:43;45.47;;;19.83;;
31130;SDS011;20292;50.944;4.034;2022-12-18T08:26:08;45.22;;;20.33;;
31130;SDS011;20292;50.944;4.034;2022-12-18T08:28:35;44.65;;;19.42;;
31130;SDS011;20292;50.944;4.034;2022-12-18T08:31:01;46.28;;;19.48;;
31130;SDS011;20292;50.944;4.034;2022-12-18T08:33:26;43.92;;;19.70;;
31130;SDS011;20292;50.944;4.034;2022-12-18T08:35:52;40.92;;;17.73;;
31130;SDS011;20292;50.944;4.034;2022-12-18T08:38:18;40.70;;;18.65;;
31130;SDS011;20292;50.944;4.034;2022-12-18T08:40:44;37.70;;;18.05;;
31130;SDS011;20292;50.944;4.034;2022-12-18T08:43:10;44.53;;;19.92;;
31130;SDS011;20292;50.944;4.034;2022-12-18T08:45:54;41.80;;;19.55;;
31130;SDS011;20292;50.944;4.034;2022-12-18T08:48:20;48.38;;;20.55;;
31130;SDS011;20292;50.944;4.034;2022-12-18T08:50:55;47.63;;;21.48;;
31130;SDS011;20292;50.944;4.034;2022-12-18T08:53:22;45.08;;;20.52;;
31130;SDS011;20292;50.944;4.034;2022-12-18T08:55:47;42.17;;;19.65;;
31130;SDS011;20292;50.944;4.034;2022-12-18T08:58:13;43.67;;;20.13;;
31130;SDS011;20292;50.944;4.034;2022-12-18T09:00:38;45.53;;;20.77;;
31130;SDS011;20292;50.944;4.034;2022-12-18T09:03:04;41.50;;;19.77;;
31130;SDS011;20292;50.944;4.034;2022-12-18T09:05:29;47.53;;;21.08;;
31130;SDS011;20292;50.944;4.034;2022-12-18T09:07:55;46.85;;;21.23;;
31130;SDS011;20292;50.944;4.034;2022-12-18T09:10:21;46.85;;;20.92;;
31130;SDS011;20292;50.944;4.034;2022-12-18T09:12:47;42.45;;;20.15;;
31130;SDS011;20292;50.944;4.034;2022-12-18T09:15:12;37.15;;;18.80;;
31130;SDS011;20292;50.944;4.034;2022-12-18T09:17:38;37.47;;;16.88;;
31130;SDS011;20292;50.944;4.034;2022-12-18T09:20:03;33.15;;;15.40;;
31130;SDS011;20292;50.944;4.034;2022-12-18T09:22:30;31.90;;;15.52;;
31130;SDS011;20292;50.944;4.034;2022-12-18T09:24:55;42.65;;;17.88;;
31130;SDS011;20292;50.944;4.034;2022-12-18T09:27:21;35.20;;;17.30;;
31130;SDS011;20292;50.944;4.034;2022-12-18T09:29:47;35.03;;;16.73;;
31130;SDS011;20292;50.944;4.034;2022-12-18T09:32:12;30.58;;;15.68;;
31130;SDS011;20292;50.944;4.034;2022-12-18T09:34:38;33.67;;;16.08;;
31130;SDS011;20292;50.944;4.034;2022-12-18T09:37:03;29.35;;;14.35;;
31130;SDS011;20292;50.944;4.034;2022-12-18T09:39:29;29.58;;;14.75;;
31130;SDS011;20292;50.944;4.034;2022-12-18T09:41:55;27.67;;;13.50;;
31130;SDS011;20292;50.944;4.034;2022-12-18T09:44:24;29.65;;;14.15;;
31130;SDS011;20292;50.944;4.034;2022-12-18T09:49:25;27.40;;;12.60;;
31130;SDS011;20292;50.944;4.034;2022-12-18T09:54:24;27.05;;;13.55;;
31130;SDS011;20292;50.944;4.034;2022-12-18T09:56:55;26.70;;;13.23;;
31130;SDS011;20292;50.944;4.034;2022-12-18T09:59:22;25.25;;;13.23;;
31130;SDS011;20292;50.944;4.034;2022-12-18T10:01:51;26.40;;;13.57;;
31130;SDS011;20292;50.944;4.034;2022-12-18T10:04:17;25.30;;;12.88;;
31130;SDS011;20292;50.944;4.034;2022-12-18T10:06:45;28.63;;;14.57;;
31130;SDS011;20292;50.944;4.034;2022-12-18T10:09:34;27.20;;;13.23;;
31130;SDS011;20292;50.944;4.034;2022-12-18T10:15:46;24.05;;;12.20;;
31130;SDS011;20292;50.944;4.034;2022-12-18T10:18:21;27.20;;;13.50;;
31130;SDS011;20292;50.944;4.034;2022-12-18T10:21:11;26.55;;;13.20;;
31130;SDS011;20292;50.944;4.034;2022-12-18T10:26:40;26.90;;;13.65;;
31130;SDS011;20292;50.944;4.034;2022-12-18T10:29:10;27.20;;;13.43;;
31130;SDS011;20292;50.944;4.034;2022-12-18T10:31:38;26.27;;;13.20;;
31130;SDS011;20292;50.944;4.034;2022-12-18T10:34:04;24.67;;;13.43;;
31130;SDS011;20292;50.944;4.034;2022-12-18T10:36:31;28.48;;;13.68;;
31130;SDS011;20292;50.944;4.034;2022-12-18T10:39:14;26.58;;;12.95;;
31130;SDS011;20292;50.944;4.034;2022-12-18T10:41:44;23.67;;;12.95;;
31130;SDS011;20292;50.944;4.034;2022-12-18T10:44:22;29.42;;;14.32;;
31130;SDS011;20292;50.944;4.034;2022-12-18T10:46:54;27.38;;;13.75;;
31130;SDS011;20292;50.944;4.034;2022-12-18T10:49:31;28.13;;;14.05;;
31130;SDS011;20292;50.944;4.034;2022-12-18T10:52:15;30.73;;;15.35;;
31130;SDS011;20292;50.944;4.034;2022-12-18T10:54:47;27.90;;;13.73;;
31130;SDS011;20292;50.944;4.034;2022-12-18T10:57:29;28.52;;;14.32;;
31130;SDS011;20292;50.944;4.034;2022-12-18T11:02:53;29.40;;;14.18;;
31130;SDS011;20292;50.944;4.034;2022-12-18T11:05:26;24.65;;;14.60;;
31130;SDS011;20292;50.944;4.034;2022-12-18T11:08:01;31.02;;;14.73;;
31130;SDS011;20292;50.944;4.034;2022-12-18T11:10:31;28.80;;;14.55;;
31130;SDS011;20292;50.944;4.034;2022-12-18T11:13:12;29.27;;;14.70;;
31130;SDS011;20292;50.944;4.034;2022-12-18T11:15:43;32.67;;;15.40;;
31130;SDS011;20292;50.944;4.034;2022-12-18T11:18:22;36.65;;;17.55;;
31130;SDS011;20292;50.944;4.034;2022-12-18T11:20:53;34.63;;;16.58;;
31130;SDS011;20292;50.944;4.034;2022-12-18T11:23:26;34.40;;;16.17;;
31130;SDS011;20292;50.944;4.034;2022-12-18T11:25:56;30.80;;;16.13;;
31130;SDS011;20292;50.944;4.034;2022-12-18T11:36:45;32.13;;;17.05;;
31130;SDS011;20292;50.944;4.034;2022-12-18T11:39:28;31.75;;;16.70;;
31130;SDS011;20292;50.944;4.034;2022-12-18T11:42:04;32.40;;;16.45;;
31130;SDS011;20292;50.944;4.034;2022-12-18T11:49:43;34.42;;;17.25;;
31130;SDS011;20292;50.944;4.034;2022-12-18T11:54:43;37.05;;;17.30;;
31130;SDS011;20292;50.944;4.034;2022-12-18T11:57:19;32.72;;;16.55;;
31130;SDS011;20292;50.944;4.034;2022-12-18T12:00:02;31.90;;;17.73;;
31130;SDS011;20292;50.944;4.034;2022-12-18T12:08:42;32.90;;;17.45;;
31130;SDS011;20292;50.944;4.034;2022-12-18T12:16:29;32.65;;;16.88;;
31130;SDS011;20292;50.944;4.034;2022-12-18T12:22:05;37.97;;;17.73;;
31130;SDS011;20292;50.944;4.034;2022-12-18T12:27:28;37.88;;;18.13;;
31130;SDS011;20292;50.944;4.034;2022-12-18T12:30:09;42.42;;;19.00;;
31130;SDS011;20292;50.944;4.034;2022-12-18T12:40:53;35.35;;;17.50;;
31130;SDS011;20292;50.944;4.034;2022-12-18T12:43:39;33.83;;;16.35;;
31130;SDS011;20292;50.944;4.034;2022-12-18T12:46:10;33.15;;;17.13;;
31130;SDS011;20292;50.944;4.034;2022-12-18T12:48:43;35.95;;;17.98;;
31130;SDS011;20292;50.944;4.034;2022-12-18T12:51:21;37.13;;;16.90;;
31130;SDS011;20292;50.944;4.034;2022-12-18T12:53:51;37.92;;;17.48;;
31130;SDS011;20292;50.944;4.034;2022-12-18T12:56:18;33.33;;;16.63;;
31130;SDS011;20292;50.944;4.034;2022-12-18T12:58:59;37.67;;;17.75;;
31130;SDS011;20292;50.944;4.034;2022-12-18T13:01:41;37.45;;;17.67;;
31130;SDS011;20292;50.944;4.034;2022-12-18T13:06:59;37.20;;;17.40;;
31130;SDS011;20292;50.944;4.034;2022-12-18T13:09:32;35.28;;;17.10;;
31130;SDS011;20292;50.944;4.034;2022-12-18T13:12:09;39.08;;;17.85;;
31130;SDS011;20292;50.944;4.034;2022-12-18T13:14:58;39.88;;;18.23;;
31130;SDS011;20292;50.944;4.034;2022-12-18T13:17:46;37.53;;;18.20;;
31130;SDS011;20292;50.944;4.034;2022-12-18T13:20:12;37.28;;;18.60;;
31130;SDS011;20292;50.944;4.034;2022-12-18T13:22:42;39.20;;;19.60;;
31130;SDS011;20292;50.944;4.034;2022-12-18T13:28:03;38.22;;;18.92;;
31130;SDS011;20292;50.944;4.034;2022-12-18T13:35:39;43.58;;;21.38;;
31130;SDS011;20292;50.944;4.034;2022-12-18T13:38:23;42.42;;;21.30;;
31130;SDS011;20292;50.944;4.034;2022-12-18T13:41:00;46.67;;;20.85;;
31130;SDS011;20292;50.944;4.034;2022-12-18T13:43:33;47.03;;;20.58;;
31130;SDS011;20292;50.944;4.034;2022-12-18T13:49:00;40.58;;;20.38;;
31130;SDS011;20292;50.944;4.034;2022-12-18T13:51:26;40.45;;;20.55;;
31130;SDS011;20292;50.944;4.034;2022-12-18T13:53:58;43.92;;;20.80;;
31130;SDS011;20292;50.944;4.034;2022-12-18T13:56:31;51.80;;;22.95;;
31130;SDS011;20292;50.944;4.034;2022-12-18T13:59:11;49.17;;;22.10;;
31130;SDS011;20292;50.944;4.034;2022-12-18T14:01:50;45.90;;;20.10;;
31130;SDS011;20292;50.944;4.034;2022-12-18T14:04:22;45.88;;;21.77;;
31130;SDS011;20292;50.944;4.034;2022-12-18T14:06:54;48.90;;;22.88;;
31130;SDS011;20292;50.944;4.034;2022-12-18T14:09:31;53.33;;;23.00;;
31130;SDS011;20292;50.944;4.034;2022-12-18T14:12:01;42.42;;;21.80;;
31130;SDS011;20292;50.944;4.034;2022-12-18T14:14:56;47.78;;;22.77;;
31130;SDS011;20292;50.944;4.034;2022-12-18T14:17:21;44.75;;;21.35;;
31130;SDS011;20292;50.944;4.034;2022-12-18T14:19:48;47.10;;;22.00;;
31130;SDS011;20292;50.944;4.034;2022-12-18T14:22:20;48.45;;;22.65;;
31130;SDS011;20292;50.944;4.034;2022-12-18T14:25:15;48.35;;;22.15;;
31130;SDS011;20292;50.944;4.034;2022-12-18T14:27:42;51.83;;;23.30;;
31130;SDS011;20292;50.944;4.034;2022-12-18T14:30:29;48.67;;;23.13;;
31130;SDS011;20292;50.944;4.034;2022-12-18T14:33:15;48.13;;;22.02;;
31130;SDS011;20292;50.944;4.034;2022-12-18T14:38:22;52.53;;;22.27;;
31130;SDS011;20292;50.944;4.034;2022-12-18T14:40:53;51.00;;;22.13;;
31130;SDS011;20292;50.944;4.034;2022-12-18T14:43:23;50.83;;;22.65;;
31130;SDS011;20292;50.944;4.034;2022-12-18T14:45:50;47.95;;;23.40;;
31130;SDS011;20292;50.944;4.034;2022-12-18T14:48:17;49.08;;;22.08;;
31130;SDS011;20292;50.944;4.034;2022-12-18T14:50:53;49.58;;;21.95;;
31130;SDS011;20292;50.944;4.034;2022-12-18T14:53:37;45.95;;;22.20;;
31130;SDS011;20292;50.944;4.034;2022-12-18T14:56:13;51.05;;;23.40;;
31130;SDS011;20292;50.944;4.034;2022-12-18T14:59:32;52.15;;;22.15;;
31130;SDS011;20292;50.944;4.034;2022-12-18T15:04:30;49.05;;;21.67;;
31130;SDS011;20292;50.944;4.034;2022-12-18T15:07:04;52.22;;;21.92;;
31130;SDS011;20292;50.944;4.034;2022-12-18T15:09:34;51.08;;;22.48;;
31130;SDS011;20292;50.944;4.034;2022-12-18T15:12:00;54.50;;;24.02;;
31130;SDS011;20292;50.944;4.034;2022-12-18T15:16:55;72.10;;;28.90;;
31130;SDS011;20292;50.944;4.034;2022-12-18T15:19:21;50.38;;;22.13;;
31130;SDS011;20292;50.944;4.034;2022-12-18T15:21:50;51.75;;;22.45;;
31130;SDS011;20292;50.944;4.034;2022-12-18T15:24:24;52.15;;;22.30;;
31130;SDS011;20292;50.944;4.034;2022-12-18T15:26:52;51.00;;;22.50;;
31130;SDS011;20292;50.944;4.034;2022-12-18T15:29:19;49.67;;;22.15;;
31130;SDS011;20292;50.944;4.034;2022-12-18T15:31:58;61.40;;;24.00;;
31130;SDS011;20292;50.944;4.034;2022-12-18T15:34:28;48.80;;;22.40;;
31130;SDS011;20292;50.944;4.034;2022-12-18T15:36:54;51.03;;;22.13;;
31130;SDS011;20292;50.944;4.034;2022-12-18T15:39:19;51.03;;;22.77;;
31130;SDS011;20292;50.944;4.034;2022-12-18T15:41:45;48.47;;;22.95;;
31130;SDS011;20292;50.944;4.034;2022-12-18T15:44:29;55.15;;;23.50;;
31130;SDS011;20292;50.944;4.034;2022-12-18T15:46:55;54.53;;;23.73;;
31130;SDS011;20292;50.944;4.034;2022-12-18T15:49:21;52.67;;;24.00;;
31130;SDS011;20292;50.944;4.034;2022-12-18T15:51:48;51.45;;;23.08;;
31130;SDS011;20292;50.944;4.034;2022-12-18T15:54:18;52.03;;;22.98;;
31130;SDS011;20292;50.944;4.034;2022-12-18T15:57:04;50.03;;;23.10;;
31130;SDS011;20292;50.944;4.034;2022-12-18T15:59:48;49.00;;;23.13;;
31130;SDS011;20292;50.944;4.034;2022-12-18T16:02:15;52.15;;;23.08;;
31130;SDS011;20292;50.944;4.034;2022-12-18T16:04:42;52.17;;;23.95;;
31130;SDS011;20292;50.944;4.034;2022-12-18T16:07:08;49.65;;;22.52;;
31130;SDS011;20292;50.944;4.034;2022-12-18T16:09:34;48.90;;;22.65;;
31130;SDS011;20292;50.944;4.034;2022-12-18T16:12:00;58.42;;;23.05;;
31130;SDS011;20292;50.944;4.034;2022-12-18T16:14:26;52.88;;;23.23;;
31130;SDS011;20292;50.944;4.034;2022-12-18T16:16:55;48.58;;;21.55;;
31130;SDS011;20292;50.944;4.034;2022-12-18T16:19:25;48.75;;;22.27;;
31130;SDS011;20292;50.944;4.034;2022-12-18T16:21:53;53.45;;;22.50;;
31130;SDS011;20292;50.944;4.034;2022-12-18T16:24:21;50.10;;;21.35;;
31130;SDS011;20292;50.944;4.034;2022-12-18T16:26:51;50.78;;;22.60;;